createdAt,value
2022-08-04T00:02:45.008Z,1.20
2022-08-04T00:05:32.086Z,1.00
2022-08-04T00:08:05.693Z,1.00
2022-08-04T00:10:37.750Z,1.17
2022-08-04T00:13:08.839Z,1.10
2022-08-04T00:15:37.860Z,1.10
2022-08-04T00:18:11.161Z,1.10
2022-08-04T00:20:44.782Z,1.20
2022-08-04T00:23:15.524Z,1.10
2022-08-04T00:25:45.553Z,1.20
2022-08-04T00:28:17.591Z,1.33
2022-08-04T00:30:49.595Z,1.30
2022-08-04T00:33:22.524Z,1.30
2022-08-04T00:35:52.722Z,1.70
2022-08-04T00:38:25.266Z,1.20
2022-08-04T00:41:09.328Z,1.27
2022-08-04T00:44:04.953Z,1.17
2022-08-04T00:46:52.369Z,1.30
2022-08-04T00:49:26.458Z,1.50
2022-08-04T00:52:31.805Z,1.13
2022-08-04T00:54:57.416Z,1.33
2022-08-04T00:57:40.500Z,1.50
2022-08-04T01:00:17.757Z,1.23
2022-08-04T01:03:07.530Z,1.53
2022-08-04T01:05:57.690Z,1.30
2022-08-04T01:08:43.943Z,1.50
2022-08-04T01:11:30.101Z,1.33
2022-08-04T01:14:15.478Z,1.40
2022-08-04T01:16:55.877Z,1.43
2022-08-04T01:19:43.499Z,1.30
2022-08-04T01:22:24.365Z,1.40
2022-08-04T01:25:12.774Z,1.30
2022-08-04T01:27:59.421Z,1.30
2022-08-04T01:30:30.775Z,1.43
2022-08-04T01:33:08.503Z,1.60
2022-08-04T01:35:47.235Z,1.43
2022-08-04T01:38:23.944Z,1.30
2022-08-04T01:41:02.563Z,1.40
2022-08-04T01:43:33.383Z,1.40
2022-08-04T01:46:03.527Z,1.30
2022-08-04T01:48:35.812Z,1.50
2022-08-04T01:51:11.343Z,1.30
2022-08-04T01:53:44.612Z,1.30
2022-08-04T01:56:17.100Z,1.20
2022-08-04T01:58:47.318Z,1.20
2022-08-04T02:01:17.642Z,1.30
2022-08-04T02:04:21.405Z,1.57
2022-08-04T02:06:52.335Z,1.43
2022-08-04T02:09:53.913Z,1.17
2022-08-04T02:12:40.552Z,1.23
2022-08-04T02:15:32.547Z,1.20
2022-08-04T02:18:12.114Z,1.40
2022-08-04T02:20:44.609Z,1.53
2022-08-04T02:23:20.563Z,1.30
2022-08-04T02:26:13.674Z,1.63
2022-08-04T02:29:09.062Z,1.40
2022-08-04T02:31:56.509Z,1.63
2022-08-04T02:34:27.811Z,1.70
2022-08-04T02:37:00.647Z,2.03
2022-08-04T02:39:34.646Z,1.50
2022-08-04T02:42:20.599Z,1.93
2022-08-04T02:44:54.116Z,1.70
2022-08-04T02:48:28.769Z,2.00
2022-08-04T02:53:09.870Z,1.73
2022-08-04T02:55:50.781Z,1.90
2022-08-04T02:58:27.644Z,2.10
2022-08-04T03:00:57.132Z,1.80
2022-08-04T03:03:45.055Z,2.93
2022-08-04T03:06:41.253Z,2.30
2022-08-04T03:09:10.874Z,2.07
2022-08-04T03:11:59.002Z,1.80
2022-08-04T03:14:47.675Z,2.00
2022-08-04T03:17:33.737Z,1.93
2022-08-04T03:20:22.904Z,1.90
2022-08-04T03:23:22.352Z,1.80
2022-08-04T03:26:03.362Z,2.13
2022-08-04T03:28:51.750Z,2.33
2022-08-04T03:31:51.088Z,2.13
2022-08-04T03:34:37.411Z,2.03
2022-08-04T03:37:26.735Z,2.40
2022-08-04T03:40:13.826Z,2.13
2022-08-04T03:43:03.464Z,1.80
2022-08-04T03:45:36.916Z,2.00
2022-08-04T03:48:29.146Z,1.93
2022-08-04T03:51:36.602Z,1.90
2022-08-04T03:54:43.970Z,2.20
2022-08-04T03:57:46.159Z,1.77
2022-08-04T04:00:21.740Z,1.67
2022-08-04T04:03:28.307Z,1.90
2022-08-04T04:06:21.056Z,1.90
2022-08-04T04:09:12.817Z,2.00
2022-08-04T04:12:01.965Z,1.90
2022-08-04T04:14:48.063Z,1.70
2022-08-04T04:17:17.982Z,2.07
2022-08-04T04:20:06.213Z,1.97
2022-08-04T04:22:56.467Z,2.00
2022-08-04T04:25:47.332Z,2.07
2022-08-04T04:28:44.832Z,2.00
2022-08-04T04:31:47.310Z,2.10
2022-08-04T04:34:42.814Z,2.00
2022-08-04T04:37:28.562Z,1.80
2022-08-04T04:40:21.835Z,1.90
2022-08-04T04:43:13.214Z,1.80
2022-08-04T04:48:44.050Z,1.83
2022-08-04T04:54:25.439Z,2.27
2022-08-04T04:57:02.965Z,1.90
2022-08-04T04:59:46.380Z,1.80
2022-08-04T05:02:30.638Z,1.80
2022-08-04T05:05:16.950Z,1.50
2022-08-04T05:07:57.462Z,1.70
2022-08-04T05:10:47.024Z,1.70
2022-08-04T05:14:35.736Z,2.27
2022-08-04T05:16:31.608Z,2.00
2022-08-04T05:19:08.960Z,1.83
2022-08-04T05:21:46.492Z,1.97
2022-08-04T05:24:17.688Z,2.00
2022-08-04T05:26:48.787Z,1.90
2022-08-04T05:29:31.868Z,1.80
2022-08-04T05:32:03.395Z,2.27
2022-08-04T05:34:39.167Z,2.23
2022-08-04T05:37:11.390Z,1.77
2022-08-04T05:39:42.530Z,2.20
2022-08-04T05:42:15.748Z,2.20
2022-08-04T05:44:50.951Z,1.80
2022-08-04T05:47:24.811Z,2.07
2022-08-04T05:50:02.067Z,1.80
2022-08-04T05:52:37.694Z,1.97
2022-08-04T05:55:08.810Z,1.63
2022-08-04T05:57:46.595Z,1.60
2022-08-04T06:00:40.085Z,1.63
2022-08-04T06:03:12.094Z,1.80
2022-08-04T06:05:48.770Z,1.93
2022-08-04T06:08:19.433Z,2.03
2022-08-04T06:10:52.945Z,2.00
2022-08-04T06:13:49.326Z,1.80
2022-08-04T06:16:29.127Z,1.63
2022-08-04T06:19:58.654Z,1.50
2022-08-04T06:21:59.683Z,1.90
2022-08-04T06:24:50.394Z,1.90
2022-08-04T06:27:21.044Z,1.57
2022-08-04T06:29:56.808Z,1.63
2022-08-04T06:32:47.877Z,1.90
2022-08-04T06:35:20.371Z,1.90
2022-08-04T06:37:50.825Z,2.00
2022-08-04T06:40:30.417Z,1.80
2022-08-04T06:43:04.339Z,1.90
2022-08-04T06:45:37.837Z,1.50
2022-08-04T06:48:08.582Z,1.63
2022-08-04T06:51:27.411Z,1.97
2022-08-04T06:53:29.505Z,1.87
2022-08-04T06:56:03.836Z,1.63
2022-08-04T06:58:34.874Z,1.80
2022-08-04T07:01:18.232Z,1.80
2022-08-04T07:03:50.699Z,1.60
2022-08-04T07:06:21.911Z,1.93
2022-08-04T07:08:54.871Z,1.70
2022-08-04T07:11:28.118Z,1.80
2022-08-04T07:14:10.802Z,1.83
2022-08-04T07:16:50.416Z,1.97
2022-08-04T07:19:19.211Z,1.87
2022-08-04T07:22:16.155Z,1.90
2022-08-04T07:27:47.804Z,1.80
2022-08-04T07:30:25.118Z,1.80
2022-08-04T07:32:59.386Z,1.87
2022-08-04T07:36:09.717Z,1.90
2022-08-04T07:38:27.350Z,1.77
2022-08-04T07:40:57.675Z,1.87
2022-08-04T07:46:14.627Z,1.67
2022-08-04T07:48:49.819Z,1.90
2022-08-04T07:51:21.107Z,2.20
2022-08-04T07:53:56.231Z,2.13
2022-08-04T07:56:28.522Z,2.13
2022-08-04T07:59:01.387Z,1.83
2022-08-04T08:01:35.773Z,2.00
2022-08-04T08:04:14.544Z,1.63
2022-08-04T08:06:50.231Z,1.87
2022-08-04T08:09:24.369Z,2.00
2022-08-04T08:12:35.503Z,1.87
2022-08-04T08:14:59.761Z,1.90
2022-08-04T08:17:33.915Z,1.80
2022-08-04T08:20:29.861Z,2.00
2022-08-04T08:23:06.130Z,2.03
2022-08-04T08:25:38.356Z,2.27
2022-08-04T08:28:06.124Z,1.67
2022-08-04T08:30:37.300Z,1.90
2022-08-04T08:36:12.188Z,2.10
2022-08-04T08:38:58.597Z,2.10
2022-08-04T08:41:45.400Z,2.07
2022-08-04T08:44:39.379Z,2.07
2022-08-04T08:47:27.462Z,2.17
2022-08-04T08:50:26.732Z,2.07
2022-08-04T08:53:15.882Z,1.90
2022-08-04T08:56:11.168Z,1.80
2022-08-04T08:59:05.485Z,1.97
2022-08-04T09:02:04.962Z,2.27
2022-08-04T09:04:52.267Z,1.90
2022-08-04T09:07:43.483Z,1.93
2022-08-04T09:10:25.191Z,1.83
2022-08-04T09:13:14.442Z,1.90
2022-08-04T09:15:54.445Z,2.03
2022-08-04T09:18:34.503Z,1.80
2022-08-04T09:21:29.855Z,2.07
2022-08-04T09:24:35.128Z,1.90
2022-08-04T09:27:12.743Z,2.03
2022-08-04T09:30:01.006Z,2.10
2022-08-04T09:32:38.562Z,1.77
2022-08-04T09:35:29.388Z,2.00
2022-08-04T09:38:18.025Z,2.17
2022-08-04T09:41:07.413Z,2.40
2022-08-04T09:44:51.263Z,2.23
2022-08-04T09:47:14.267Z,2.10
2022-08-04T09:52:49.547Z,2.20
2022-08-04T09:55:34.583Z,2.30
2022-08-04T09:58:08.527Z,2.53
2022-08-04T10:01:01.016Z,2.27
2022-08-04T10:03:35.079Z,2.40
2022-08-04T10:06:37.684Z,2.43
2022-08-04T10:09:08.161Z,3.00
2022-08-04T10:11:55.895Z,3.03
2022-08-04T10:14:41.277Z,2.53
2022-08-04T10:17:33.166Z,2.50
2022-08-04T10:20:33.906Z,2.67
2022-08-04T10:23:14.521Z,2.80
2022-08-04T10:26:14.907Z,2.33
2022-08-04T10:29:00.538Z,2.63
2022-08-04T10:31:41.370Z,2.40
2022-08-04T10:34:32.638Z,2.37
2022-08-04T10:37:22.370Z,2.40
2022-08-04T10:40:39.885Z,2.30
2022-08-04T10:43:28.672Z,2.10
2022-08-04T10:46:15.036Z,2.03
2022-08-04T10:49:00.292Z,2.40
2022-08-04T10:51:57.236Z,2.03
2022-08-04T10:54:30.832Z,2.30
2022-08-04T10:57:25.162Z,1.90
2022-08-04T11:00:13.180Z,2.27
2022-08-04T11:03:05.332Z,2.00
2022-08-04T11:05:51.066Z,2.07
2022-08-04T11:08:40.316Z,2.10
2022-08-04T11:11:28.405Z,2.27
2022-08-04T11:14:12.785Z,1.70
2022-08-04T11:17:03.591Z,1.87
2022-08-04T11:19:44.680Z,1.90
2022-08-04T11:25:26.640Z,2.17
2022-08-04T11:28:15.292Z,2.30
2022-08-04T11:31:04.115Z,1.87
2022-08-04T11:33:51.790Z,1.53
2022-08-04T11:36:38.869Z,1.83
2022-08-04T11:39:22.565Z,1.93
2022-08-04T11:41:57.254Z,2.03
2022-08-04T11:44:40.095Z,1.77
2022-08-04T11:47:18.019Z,2.10
2022-08-04T11:52:43.427Z,2.10
2022-08-04T11:55:24.693Z,1.70
2022-08-04T11:57:55.785Z,1.80
2022-08-04T12:00:24.949Z,1.80
2022-08-04T12:03:01.437Z,2.30
2022-08-04T12:05:37.846Z,1.63
2022-08-04T12:08:20.530Z,1.63
2022-08-04T12:11:09.746Z,2.00
2022-08-04T12:13:56.296Z,1.70
2022-08-04T12:16:30.927Z,1.80
2022-08-04T12:19:04.234Z,1.50
2022-08-04T12:24:52.813Z,1.70
2022-08-04T12:27:32.619Z,1.60
2022-08-04T12:30:58.174Z,1.70
2022-08-04T12:33:03.594Z,1.40
2022-08-04T12:36:10.571Z,1.67
2022-08-04T12:38:49.835Z,1.50
2022-08-04T12:41:25.570Z,1.53
2022-08-04T12:43:58.402Z,1.53
2022-08-04T12:46:31.067Z,1.67
2022-08-04T12:49:03.738Z,1.43
2022-08-04T12:52:07.616Z,1.53
2022-08-04T12:54:40.153Z,1.73
2022-08-04T12:57:25.260Z,1.60
2022-08-04T12:59:57.954Z,1.67
2022-08-04T13:02:30.184Z,1.77
2022-08-04T13:05:06.133Z,1.70
2022-08-04T13:07:46.110Z,1.97
2022-08-04T13:10:30.227Z,1.83
2022-08-04T13:13:02.990Z,1.83
2022-08-04T13:15:47.216Z,1.50
2022-08-04T13:18:29.288Z,1.60
2022-08-04T13:21:20.506Z,1.73
2022-08-04T13:24:10.782Z,1.63
2022-08-04T13:30:03.570Z,2.00
2022-08-04T13:32:34.614Z,1.87
2022-08-04T13:37:50.998Z,1.33
2022-08-04T13:40:24.327Z,1.70
2022-08-04T13:42:59.303Z,1.50
2022-08-04T13:45:35.224Z,1.53
2022-08-04T13:48:15.726Z,1.57
2022-08-04T13:51:08.067Z,2.00
2022-08-04T13:53:40.248Z,1.47
2022-08-04T13:56:13.898Z,1.73
2022-08-04T13:59:01.349Z,1.70
2022-08-04T14:01:35.909Z,1.70
2022-08-04T14:04:07.983Z,1.80
2022-08-04T14:06:50.713Z,1.60
2022-08-04T14:12:46.506Z,1.70
2022-08-04T14:15:04.308Z,1.60
2022-08-04T14:17:31.868Z,1.70
2022-08-04T14:20:07.420Z,1.93
2022-08-04T14:22:42.539Z,1.97
2022-08-04T14:25:16.908Z,1.57
2022-08-04T14:27:54.522Z,1.60
2022-08-04T14:30:33.204Z,1.70
2022-08-04T14:34:02.762Z,1.60
2022-08-04T14:36:06.439Z,1.73
2022-08-04T14:39:01.151Z,1.40
2022-08-04T14:41:34.652Z,1.40
2022-08-04T14:44:04.589Z,1.70
2022-08-04T14:46:51.724Z,1.50
2022-08-04T14:49:19.389Z,1.57
2022-08-04T14:52:12.540Z,1.60
2022-08-04T14:54:43.137Z,1.80
2022-08-04T14:57:18.485Z,1.63
2022-08-04T14:59:59.464Z,1.47
2022-08-04T15:02:37.132Z,1.33
2022-08-04T15:05:59.893Z,1.57
2022-08-04T15:08:01.786Z,1.40
2022-08-04T15:10:34.332Z,1.20
2022-08-04T15:13:04.796Z,1.73
2022-08-04T15:18:18.543Z,1.37
2022-08-04T15:20:51.535Z,1.70
2022-08-04T15:23:20.599Z,2.00
2022-08-04T15:25:56.666Z,1.60
2022-08-04T15:28:29.960Z,1.53
2022-08-04T15:31:01.786Z,1.60
2022-08-04T15:33:33.556Z,1.80
2022-08-04T15:36:25.193Z,1.73
2022-08-04T15:39:01.423Z,1.60
2022-08-04T15:41:57.620Z,2.00
2022-08-04T15:44:34.213Z,1.67
2022-08-04T15:47:19.609Z,2.00
2022-08-04T15:50:09.158Z,2.00
2022-08-04T15:53:01.256Z,2.07
2022-08-04T15:55:44.413Z,1.93
2022-08-04T15:58:21.130Z,2.17
2022-08-04T16:00:57.589Z,1.80
2022-08-04T16:03:58.696Z,1.90
2022-08-04T16:06:35.637Z,2.10
2022-08-04T16:09:12.635Z,1.87
2022-08-04T16:11:51.855Z,2.00
2022-08-04T16:14:39.647Z,1.93
2022-08-04T16:17:31.963Z,1.90
2022-08-04T16:20:07.337Z,1.87
2022-08-04T16:22:41.704Z,1.60
2022-08-04T16:25:10.894Z,1.87
2022-08-04T16:27:45.152Z,2.00
2022-08-04T16:30:18.354Z,1.87
2022-08-04T16:32:49.202Z,1.90
2022-08-04T16:35:30.020Z,2.13
2022-08-04T16:38:17.113Z,1.80
2022-08-04T16:40:58.399Z,2.00
2022-08-04T16:43:36.567Z,1.73
2022-08-04T16:46:19.902Z,1.80
2022-08-04T16:49:07.135Z,2.13
2022-08-04T16:51:39.702Z,1.87
2022-08-04T16:54:11.994Z,2.23
2022-08-04T16:56:46.802Z,1.87
2022-08-04T16:59:18.659Z,1.87
2022-08-04T17:01:52.141Z,1.90
2022-08-04T17:04:30.331Z,1.90
2022-08-04T17:07:08.172Z,2.17
2022-08-04T17:09:35.661Z,2.33
2022-08-04T17:12:10.699Z,1.70
2022-08-04T17:14:40.331Z,1.73
2022-08-04T17:17:18.766Z,1.93
2022-08-04T17:20:03.028Z,1.90
2022-08-04T17:22:33.152Z,1.90
2022-08-04T17:25:02.468Z,1.70
2022-08-04T17:28:08.478Z,1.70
2022-08-04T17:30:30.935Z,2.10
2022-08-04T17:33:00.781Z,1.73
2022-08-04T17:35:38.485Z,2.00
2022-08-04T17:38:06.396Z,2.10
2022-08-04T17:40:36.426Z,1.97
2022-08-04T17:44:04.812Z,1.90
2022-08-04T17:46:28.517Z,1.90
2022-08-04T17:49:16.708Z,1.67
2022-08-04T17:52:06.926Z,1.83
2022-08-04T17:54:41.099Z,1.50
2022-08-04T17:57:19.654Z,1.63
2022-08-04T17:59:58.909Z,1.63
2022-08-04T18:02:35.265Z,1.73
2022-08-04T18:05:05.739Z,1.60
2022-08-04T18:08:40.411Z,1.90
2022-08-04T18:10:55.389Z,1.73
2022-08-04T18:13:42.659Z,1.70
2022-08-04T18:16:22.852Z,1.90
2022-08-04T18:19:18.716Z,1.70
2022-08-04T18:21:59.361Z,2.00
2022-08-04T18:24:35.482Z,1.63
2022-08-04T18:27:31.428Z,1.80
2022-08-04T18:30:38.500Z,1.70
2022-08-04T18:33:24.566Z,1.60
2022-08-04T18:38:55.523Z,1.60
2022-08-04T18:41:26.500Z,1.60
2022-08-04T18:44:01.503Z,1.70
2022-08-04T18:46:34.568Z,1.83
2022-08-04T18:49:04.280Z,1.50
2022-08-04T18:51:36.205Z,1.60
2022-08-04T18:54:09.906Z,2.00
2022-08-04T18:59:38.346Z,1.60
2022-08-04T19:02:18.495Z,1.97
2022-08-04T19:04:49.595Z,1.67
2022-08-04T19:07:30.070Z,2.03
2022-08-04T19:10:02.944Z,2.10
2022-08-04T19:12:33.954Z,1.90
2022-08-04T19:15:11.720Z,2.33
2022-08-04T19:17:53.905Z,2.50
2022-08-04T19:20:33.565Z,2.10
2022-08-04T19:24:29.105Z,2.20
2022-08-04T19:26:16.560Z,2.57
2022-08-04T19:31:40.207Z,2.60
2022-08-04T19:34:13.339Z,2.60
2022-08-04T19:36:46.031Z,2.20
2022-08-04T19:39:30.902Z,2.60
2022-08-04T19:42:04.433Z,2.53
2022-08-04T19:44:44.491Z,2.50
2022-08-04T19:48:11.258Z,2.50
2022-08-04T19:50:11.706Z,3.03
2022-08-04T19:55:37.690Z,2.33
2022-08-04T19:58:10.963Z,2.60
2022-08-04T20:00:44.595Z,2.70
2022-08-04T20:03:21.565Z,2.57
2022-08-04T20:05:54.810Z,2.30
2022-08-04T20:08:28.925Z,2.43
2022-08-04T20:11:00.638Z,2.20
2022-08-04T20:13:37.579Z,2.37
2022-08-04T20:19:02.781Z,2.20
2022-08-04T20:21:54.093Z,2.07
2022-08-04T20:24:39.944Z,2.80
2022-08-04T20:27:21.597Z,2.40
2022-08-04T20:29:55.533Z,2.27
2022-08-04T20:32:28.583Z,2.07
2022-08-04T20:35:04.627Z,2.23
2022-08-04T20:37:56.839Z,1.90
2022-08-04T20:40:26.734Z,2.17
2022-08-04T20:43:08.917Z,2.10
2022-08-04T20:45:56.977Z,2.13
2022-08-04T20:48:34.002Z,1.83
2022-08-04T20:51:02.934Z,1.87
2022-08-04T20:53:52.659Z,2.00
2022-08-04T20:56:31.013Z,1.90
2022-08-04T20:59:07.762Z,2.43
2022-08-04T21:01:40.510Z,1.70
2022-08-04T21:04:32.160Z,2.03
2022-08-04T21:07:02.829Z,1.67
2022-08-04T21:09:42.741Z,1.93
2022-08-04T21:12:33.749Z,1.63
2022-08-04T21:15:13.416Z,1.53
2022-08-04T21:17:58.495Z,1.53
2022-08-04T21:20:39.487Z,1.70
2022-08-04T21:23:15.141Z,1.90
2022-08-04T21:25:51.030Z,1.73
2022-08-04T21:31:02.340Z,1.70
2022-08-04T21:33:50.643Z,1.70
2022-08-04T21:36:27.270Z,1.90
2022-08-04T21:38:58.660Z,1.60
2022-08-04T21:41:30.923Z,1.60
2022-08-04T21:43:59.855Z,1.77
2022-08-04T21:46:30.554Z,1.40
2022-08-04T21:49:03.456Z,1.43
2022-08-04T21:54:27.542Z,1.33
2022-08-04T21:57:03.537Z,1.67
2022-08-04T21:59:45.330Z,1.50
2022-08-04T22:05:01.150Z,1.60
2022-08-04T22:07:50.078Z,1.33
2022-08-04T22:10:32.071Z,1.40
2022-08-04T22:13:10.012Z,1.40
2022-08-04T22:16:03.862Z,1.40
2022-08-04T22:18:36.862Z,1.40
2022-08-04T22:21:11.880Z,1.60
2022-08-04T22:23:45.410Z,1.50
2022-08-04T22:26:34.680Z,1.53
2022-08-04T22:29:06.302Z,1.43
2022-08-04T22:31:53.127Z,1.20
2022-08-04T22:34:30.435Z,1.53
2022-08-04T22:37:12.445Z,1.53
2022-08-04T22:39:56.808Z,1.40
2022-08-04T22:42:29.625Z,1.37
2022-08-04T22:45:04.143Z,1.43
2022-08-04T22:47:42.196Z,1.27
2022-08-04T22:50:27.097Z,1.33
2022-08-04T22:52:59.973Z,1.40
2022-08-04T22:55:57.441Z,1.60
2022-08-04T22:58:28.658Z,1.27
2022-08-04T23:00:58.840Z,1.33
2022-08-04T23:03:37.177Z,1.00
2022-08-04T23:06:14.731Z,1.33
2022-08-04T23:08:46.726Z,1.50
2022-08-04T23:11:20.628Z,1.33
2022-08-04T23:13:54.488Z,1.30
2022-08-04T23:16:27.266Z,1.30
2022-08-04T23:19:00.391Z,1.73
2022-08-04T23:21:47.153Z,1.47
2022-08-04T23:24:20.416Z,1.30
2022-08-04T23:26:52.784Z,1.27
2022-08-04T23:29:25.001Z,1.40
2022-08-04T23:31:59.623Z,1.23
2022-08-04T23:34:32.558Z,1.63
2022-08-04T23:37:04.425Z,1.40
2022-08-04T23:40:03.315Z,1.40
2022-08-04T23:45:06.462Z,1.03
2022-08-04T23:48:16.755Z,1.20
2022-08-04T23:50:36.122Z,1.20
2022-08-04T23:53:07.950Z,1.17
2022-08-04T23:55:48.560Z,1.37
2022-08-04T23:58:27.557Z,1.30
